Hollywood, FL (33019)

1:05 PM EDT on August 24, 2016 (GMT -0400)
Hollywood Marina | | Change Station

Elev 2 ft 26.01 °N, 80.12 °W | Updated 6 seconds ago

Mostly Cloudy
Mostly Cloudy
89.2 °F
Feels Like 108 °F
N
0.0
Wind Variable Wind from NE
Gusts 0.0 mph

Today
High -- | Low -- °F
--% Chance of Precip.
Yesterday
High -- | Low -- °F
Precip. -- in
Pressure 30.05 in
Visibility 10.0 miles
Clouds Scattered Clouds 2200 ft
Scattered Clouds 5000 ft
Scattered Clouds 9000 ft
Mostly Cloudy 25000 ft
Heat Index 108 °F
Dew Point 81 °F
Humidity 76%
Rainfall 0.00 in
Snow Depth Not available.
6:57 AM 7:47 PM
Waning Gibbous, 55% visible
METAR KFLL 241653Z COR 03009KT 10SM SCT022 SCT050 SCT090 BKN250 32/26 A3005 RMK AO2 RAE22 SLP176 P0000 T03220256
Pressure 30.05 in
Visibility 10.0 miles
Clouds Scattered Clouds 2200 ft
Scattered Clouds 5000 ft
Scattered Clouds 9000 ft
Mostly Cloudy 25000 ft
Heat Index 108 °F
Dew Point 81 °F
Humidity 76%
Rainfall 0.00 in
Snow Depth Not available.
6:57 AM 7:47 PM
Waning Gibbous, 55% visible
METAR KFLL 241653Z COR 03009KT 10SM SCT022 SCT050 SCT090 BKN250 32/26 A3005 RMK AO2 RAE22 SLP176 P0000 T03220256
A tropical disturbance we've monitored since last week, may have a dangerous future in store for the southeast U.S. and Gulf coasts this weekend into next week. The National Weather Service has issued a flash flood watch for Puerto Rico and the U.S. Virgin Islands. Rainfall totals of 2-4 inches (locally higher) are expected through Wednesday night in those areas.

The National Hurricane Center says this system has a medium to high chance of development into a tropical depression or tropical storm over the next 2 to 5 days. A tight consensus of our guidance suggests the disturbance should continue in a general west or west-northwest trajectory the next several days.

10-Day Weather Forecast

Almanac

Astronomy

Aug. 24, 2016 Rise Set
Actual Time
Civil Twilight
Nautical Twilight
Astronomical Twilight
Moon
Length of Visible Light
Length of Day
Tomorrow will be .
, % of the Moon is Illuminated

Today's Extremes

State Highs State Lows

Community

WunderPhotos

Upload Photos

1,934,650 photos uploaded!

WunderBlog® & News

Nearby

Air Quality

  Air Quality AQ Index Pollutant
Not available.

Snow Depth

Station Depth Elevation

Earthquake Activity

City Distance Mag. Time & Date
Minimum magnitude displayed is 2.5.

Coastal Water Temperatures

Place Temperature

Stations

Nearby Weather Stations

Station Location Temp. Windchill Dew Point Humidity Wind Precip. Elev Updated Type
                   

Watches & Warnings

There are currently no watches in effect.